Time;durP1;ratioP1;P1;durP2;ratioP2;P2;SDS_P1;SDS_P2;PMS_P1;PMS_P2;Temp;Humidity;BMP_temperature;BMP_pressure;BME280_temperature;BME280_humidity;BME280_pressure;Samples;Min_cycle;Max_cycle;Signal;HPM_P1;HPM_P2
2022/08/17 00:00:54;;;;;;;8.90;7.63;;;26.30;71.90;;;;;;5055115;28;20373;-75
2022/08/17 00:03:23;;;;;;;8.35;7.45;;;26.30;72.40;;;;;;5054928;28;20021;-75
2022/08/17 00:05:57;;;;;;;9.00;7.43;;;26.30;71.60;;;;;;5054738;28;20033;-75
2022/08/17 00:08:26;;;;;;;9.57;8.00;;;26.30;71.30;;;;;;5055087;28;20021;-75
2022/08/17 00:10:53;;;;;;;10.35;8.15;;;26.30;71.10;;;;;;5054511;28;20041;-75
2022/08/17 00:13:27;;;;;;;9.60;7.70;;;26.30;71.10;;;;;;5054961;28;20029;-75
2022/08/17 00:15:57;;;;;;;10.02;7.63;;;26.30;71.00;;;;;;5054666;28;20044;-75
2022/08/17 00:18:23;;;;;;;10.02;7.45;;;26.30;71.00;;;;;;5054598;28;20039;-76
2022/08/17 00:20:48;;;;;;;11.88;9.82;;;26.20;71.20;;;;;;5054798;28;20104;-75
2022/08/17 00:23:16;;;;;;;13.00;8.23;;;26.20;71.40;;;;;;5053765;28;20443;-74
2022/08/17 00:25:45;;;;;;;10.82;8.98;;;26.10;71.50;;;;;;5054587;28;20033;-75
2022/08/17 00:28:14;;;;;;;7.00;6.38;;;26.20;71.60;;;;;;5054636;28;20028;-75
2022/08/17 00:30:41;;;;;;;15.30;9.75;;;26.20;71.50;;;;;;5054602;28;20029;-75
2022/08/17 00:33:10;;;;;;;8.90;7.45;;;26.10;71.50;;;;;;5054174;28;20422;-75
2022/08/17 00:35:36;;;;;;;10.85;9.00;;;26.10;71.50;;;;;;5054206;28;20106;-75
2022/08/17 00:38:05;;;;;;;14.57;10.35;;;26.10;71.90;;;;;;5054037;28;20029;-75
2022/08/17 00:40:30;;;;;;;15.30;10.80;;;26.00;72.10;;;;;;5054306;28;20029;-75
2022/08/17 00:43:05;;;;;;;13.77;11.65;;;25.90;72.90;;;;;;5054325;28;20028;-75
2022/08/17 00:45:31;;;;;;;13.27;10.40;;;25.70;73.30;;;;;;5054129;28;20108;-75
2022/08/17 00:47:57;;;;;;;13.10;10.55;;;25.70;73.50;;;;;;5054251;28;20094;-75
2022/08/17 00:50:22;;;;;;;13.13;11.23;;;25.70;73.60;;;;;;5053914;28;20056;-75
2022/08/17 00:52:54;;;;;;;13.88;11.38;;;25.70;74.00;;;;;;5053823;28;20025;-75
2022/08/17 00:55:22;;;;;;;15.88;10.13;;;25.40;74.70;;;;;;5053871;28;20052;-75
2022/08/17 00:57:52;;;;;;;12.63;10.68;;;25.30;74.90;;;;;;5053875;28;20029;-75
2022/08/17 01:00:25;;;;;;;18.25;11.98;;;25.40;74.90;;;;;;5054138;28;20100;-75
2022/08/17 01:02:57;;;;;;;17.23;11.65;;;25.40;75.00;;;;;;5053607;28;20028;-75
2022/08/17 01:05:27;;;;;;;11.05;9.82;;;25.30;75.10;;;;;;5052857;28;20098;-75
2022/08/17 01:07:53;;;;;;;16.05;12.05;;;25.20;75.40;;;;;;5053564;28;20116;-75
2022/08/17 01:10:26;;;;;;;13.20;11.18;;;25.20;75.50;;;;;;5053696;28;20047;-75
2022/08/17 01:12:52;;;;;;;11.85;10.50;;;25.20;75.60;;;;;;5053932;28;20025;-75
2022/08/17 01:15:17;;;;;;;15.65;11.32;;;25.20;75.60;;;;;;5053354;28;20491;-75
2022/08/17 01:17:44;;;;;;;12.80;10.05;;;25.20;75.40;;;;;;5053443;28;20029;-75
2022/08/17 01:20:10;;;;;;;14.90;11.68;;;25.20;75.20;;;;;;5053489;28;20104;-75
2022/08/17 01:22:36;;;;;;;13.30;9.35;;;25.30;75.00;;;;;;5053573;28;20043;-75
2022/08/17 01:25:06;;;;;;;12.52;9.93;;;25.30;74.80;;;;;;5053100;28;20221;-75
2022/08/17 01:27:32;;;;;;;12.18;10.23;;;25.40;74.80;;;;;;5053069;28;20054;-75
2022/08/17 01:30:02;;;;;;;13.45;10.95;;;25.30;74.70;;;;;;5053212;28;20025;-75
2022/08/17 01:32:29;;;;;;;12.60;10.27;;;25.30;74.80;;;;;;5053305;28;20104;-75
2022/08/17 01:34:55;;;;;;;14.85;11.63;;;25.20;75.00;;;;;;5053203;28;20059;-75
2022/08/17 01:37:29;;;;;;;15.05;11.90;;;25.10;75.30;;;;;;5053431;28;20023;-75
2022/08/17 01:40:02;;;;;;;9.63;8.40;;;25.00;75.40;;;;;;5053247;28;20025;-75
2022/08/17 01:42:40;;;;;;;13.00;9.32;;;25.10;75.30;;;;;;5053246;28;20025;-75
2022/08/17 01:45:21;;;;;;;11.38;10.30;;;25.10;75.10;;;;;;5053335;28;20029;-75
2022/08/17 01:47:48;;;;;;;11.98;9.90;;;25.20;74.80;;;;;;5053401;28;20043;-75
2022/08/17 01:50:21;;;;;;;12.20;10.73;;;25.10;75.00;;;;;;5052941;28;20025;-75
2022/08/17 01:52:52;;;;;;;13.10;10.73;;;25.00;75.20;;;;;;5052999;28;20045;-75
2022/08/17 01:55:24;;;;;;;13.57;11.75;;;24.90;75.30;;;;;;5052983;28;20032;-75
2022/08/17 01:57:50;;;;;;;7.88;6.88;;;25.00;75.40;;;;;;5053292;28;20154;-75
2022/08/17 02:00:17;;;;;;;10.85;8.98;;;24.90;75.50;;;;;;5053151;28;20433;-75
2022/08/17 02:02:44;;;;;;;9.02;8.07;;;25.00;75.40;;;;;;5052908;28;20557;-75
2022/08/17 02:05:11;;;;;;;10.68;8.25;;;25.10;75.00;;;;;;5052746;28;20032;-75
2022/08/17 02:07:37;;;;;;;13.27;9.68;;;25.20;74.90;;;;;;5053136;28;20488;-75
2022/08/17 02:10:10;;;;;;;10.18;9.18;;;25.10;74.70;;;;;;5052814;28;20477;-75
2022/08/17 02:12:36;;;;;;;12.52;10.95;;;25.20;74.70;;;;;;5052594;28;20029;-75
2022/08/17 02:15:08;;;;;;;9.57;8.05;;;25.20;74.60;;;;;;5052846;28;20083;-75
2022/08/17 02:17:33;;;;;;;12.07;10.77;;;25.20;74.60;;;;;;5056117;28;20431;-75
2022/08/17 02:19:59;;;;;;;11.85;9.85;;;25.20;74.60;;;;;;5056759;28;20025;-75
2022/08/17 02:22:26;;;;;;;11.57;10.38;;;25.20;74.80;;;;;;5057106;28;20119;-75
2022/08/17 02:24:53;;;;;;;10.85;9.75;;;25.20;74.80;;;;;;5056590;28;20098;-75
2022/08/17 02:27:18;;;;;;;14.65;12.20;;;25.20;75.40;;;;;;5056671;28;20031;-75
2022/08/17 02:29:44;;;;;;;13.35;11.75;;;25.10;75.20;;;;;;5056625;28;20462;-75
2022/08/17 02:32:18;;;;;;;21.60;12.43;;;25.10;75.20;;;;;;5056608;28;20021;-75
2022/08/17 02:34:45;;;;;;;12.20;11.00;;;25.00;75.40;;;;;;5056375;28;20025;-75
2022/08/17 02:37:10;;;;;;;10.65;9.65;;;25.00;75.40;;;;;;5056464;28;20032;-75
2022/08/17 02:39:37;;;;;;;11.93;10.18;;;25.00;75.50;;;;;;5056261;28;20024;-75
2022/08/17 02:42:03;;;;;;;18.60;14.27;;;25.00;75.60;;;;;;5056630;28;20131;-75
2022/08/17 02:44:30;;;;;;;11.27;10.07;;;25.00;75.70;;;;;;5056349;28;20029;-75
2022/08/17 02:46:55;;;;;;;14.43;11.43;;;25.00;75.70;;;;;;5056536;28;20025;-75
2022/08/17 02:49:21;;;;;;;14.32;12.95;;;25.00;75.60;;;;;;5056237;28;20072;-75
2022/08/17 02:51:48;;;;;;;13.40;12.10;;;25.00;75.50;;;;;;5056185;28;20021;-75
2022/08/17 02:54:14;;;;;;;9.95;9.05;;;25.10;75.40;;;;;;5056476;28;20048;-75
2022/08/17 02:56:41;;;;;;;12.35;11.05;;;25.10;75.20;;;;;;5056306;28;20036;-75
2022/08/17 02:59:07;;;;;;;15.68;13.18;;;25.10;75.10;;;;;;5056154;28;20345;-74
2022/08/17 03:01:32;;;;;;;11.93;10.73;;;25.00;75.20;;;;;;5056027;28;20079;-74
2022/08/17 03:03:58;;;;;;;12.98;11.60;;;25.10;75.20;;;;;;5056260;28;20056;-74
2022/08/17 03:06:24;;;;;;;13.18;11.88;;;25.10;75.00;;;;;;5055955;28;20024;-75
2022/08/17 03:08:50;;;;;;;15.55;12.27;;;25.10;74.90;;;;;;5055738;28;20131;-74
2022/08/17 03:11:15;;;;;;;11.88;10.77;;;25.10;74.90;;;;;;5055881;28;20066;-74
2022/08/17 03:13:41;;;;;;;10.65;9.60;;;25.10;74.80;;;;;;5055616;28;20476;-75
2022/08/17 03:16:07;;;;;;;12.82;11.52;;;25.20;74.70;;;;;;5055626;28;20047;-75
2022/08/17 03:18:33;;;;;;;15.73;13.32;;;25.20;74.60;;;;;;5055362;28;20024;-75
2022/08/17 03:21:02;;;;;;;12.05;10.70;;;25.20;74.30;;;;;;5055668;28;20021;-75
2022/08/17 03:23:28;;;;;;;9.88;8.63;;;25.20;74.40;;;;;;5055449;28;20464;-74
2022/08/17 03:25:54;;;;;;;10.95;9.88;;;25.20;74.30;;;;;;5055076;28;20183;-74
2022/08/17 03:28:22;;;;;;;15.05;13.18;;;25.20;74.40;;;;;;5054583;28;20075;-74
2022/08/17 03:30:49;;;;;;;9.80;8.88;;;25.20;74.70;;;;;;5055523;28;20354;-74
2022/08/17 03:33:15;;;;;;;16.38;14.63;;;25.10;74.90;;;;;;5055323;28;20380;-74
2022/08/17 03:35:41;;;;;;;12.57;10.57;;;25.00;75.30;;;;;;5055257;28;20120;-74
2022/08/17 03:38:11;;;;;;;16.15;14.52;;;25.00;75.60;;;;;;5055418;28;20100;-74
2022/08/17 03:40:38;;;;;;;18.80;14.55;;;25.00;75.90;;;;;;5055363;28;20033;-74
2022/08/17 03:43:07;;;;;;;19.45;15.23;;;24.90;76.40;;;;;;5055497;28;20025;-74
2022/08/17 03:56:43;;;;;;;21.98;17.30;;;24.50;78.50;;;;;;5055014;28;20171;-74
2022/08/17 03:59:16;;;;;;;15.48;12.73;;;24.40;79.00;;;;;;5055247;28;20100;-74
2022/08/17 04:01:49;;;;;;;15.57;13.52;;;24.30;79.00;;;;;;5054715;28;20056;-74
2022/08/17 04:04:15;;;;;;;17.52;13.98;;;24.40;78.80;;;;;;5054735;28;20024;-74
2022/08/17 04:06:41;;;;;;;15.25;13.75;;;24.40;78.50;;;;;;5055100;28;20017;-74
2022/08/17 04:09:07;;;;;;;13.23;10.07;;;24.40;78.20;;;;;;5054458;28;20457;-74
2022/08/17 04:11:34;;;;;;;20.10;13.75;;;24.50;78.00;;;;;;5054873;28;20160;-74
2022/08/17 04:14:01;;;;;;;14.35;12.50;;;24.50;77.60;;;;;;5055012;28;20025;-74
2022/08/17 04:16:27;;;;;;;15.90;11.20;;;24.50;77.40;;;;;;5054891;28;20045;-74
2022/08/17 04:18:52;;;;;;;12.95;11.65;;;24.40;77.20;;;;;;5054579;28;20052;-74
2022/08/17 04:21:22;;;;;;;11.23;10.02;;;24.50;77.00;;;;;;5054449;28;20464;-74
2022/08/17 04:23:48;;;;;;;10.50;9.50;;;24.60;76.70;;;;;;5054452;28;20041;-74
2022/08/17 04:26:14;;;;;;;10.05;8.98;;;24.60;77.00;;;;;;5054405;28;20048;-74
2022/08/17 04:28:41;;;;;;;10.40;8.15;;;24.60;75.80;;;;;;5054679;28;20025;-74
2022/08/17 04:31:11;;;;;;;8.52;7.72;;;24.60;75.80;;;;;;5054202;28;20025;-74
2022/08/17 04:33:38;;;;;;;9.55;8.15;;;24.70;75.60;;;;;;5054604;28;20459;-74
2022/08/17 04:36:06;;;;;;;9.27;7.97;;;24.80;75.40;;;;;;5054149;28;20549;-74
2022/08/17 04:38:35;;;;;;;12.43;10.05;;;24.70;75.10;;;;;;5053996;28;20025;-74
2022/08/17 04:43:46;;;;;;;15.70;9.75;;;24.80;74.50;;;;;;5054101;28;20063;-74
2022/08/17 04:46:17;;;;;;;13.73;10.88;;;24.70;74.30;;;;;;5054092;28;20029;-74
2022/08/17 04:48:45;;;;;;;9.48;8.15;;;24.60;74.30;;;;;;5053970;28;20032;-74
2022/08/17 04:51:28;;;;;;;9.93;8.88;;;24.50;74.30;;;;;;5054265;28;20025;-74
2022/08/17 04:54:04;;;;;;;9.57;8.48;;;24.50;74.20;;;;;;5054166;28;20021;-74
2022/08/17 04:56:31;;;;;;;9.77;7.38;;;24.60;74.10;;;;;;5054072;28;20061;-74
2022/08/17 04:59:09;;;;;;;11.07;8.25;;;24.60;74.00;;;;;;5053873;28;20033;-74
2022/08/17 05:01:38;;;;;;;12.13;7.57;;;24.70;73.80;;;;;;5053888;28;20029;-74
2022/08/17 05:04:07;;;;;;;9.38;7.38;;;24.70;73.40;;;;;;5053697;28;20095;-74
2022/08/17 05:06:33;;;;;;;9.65;7.18;;;24.80;73.20;;;;;;5053858;28;20033;-74
2022/08/17 05:08:59;;;;;;;7.05;6.35;;;24.80;73.20;;;;;;5053720;28;20427;-74
2022/08/17 05:11:27;;;;;;;9.60;7.35;;;24.90;73.10;;;;;;5053299;28;20028;-74
2022/08/17 05:13:54;;;;;;;12.07;8.40;;;25.00;72.80;;;;;;5053831;28;20045;-74
2022/08/17 05:16:21;;;;;;;9.30;8.40;;;25.00;72.40;;;;;;5053651;28;20045;-74
2022/08/17 05:18:48;;;;;;;10.85;9.63;;;25.00;72.70;;;;;;5053530;28;20376;-74
2022/08/17 05:21:14;;;;;;;14.07;10.55;;;25.00;73.00;;;;;;5053344;28;20029;-74
2022/08/17 05:23:41;;;;;;;9.93;8.60;;;24.90;73.40;;;;;;5053392;28;20107;-74
2022/08/17 05:26:07;;;;;;;12.73;10.93;;;24.90;73.60;;;;;;5053296;28;20028;-74
2022/08/17 05:28:33;;;;;;;16.17;13.50;;;24.90;73.70;;;;;;5053516;28;20057;-75
2022/08/17 05:31:02;;;;;;;17.23;13.63;;;24.60;74.50;;;;;;5053670;28;20110;-74
2022/08/17 05:33:32;;;;;;;14.82;11.85;;;24.20;75.50;;;;;;5053336;28;20103;-74
2022/08/17 05:35:59;;;;;;;13.02;9.98;;;24.10;76.20;;;;;;5053080;28;20036;-74
2022/08/17 05:38:27;;;;;;;11.68;9.90;;;24.10;76.20;;;;;;5053113;28;20476;-74
2022/08/17 05:40:53;;;;;;;8.68;7.40;;;24.20;76.10;;;;;;5053233;28;20040;-74
2022/08/17 05:43:24;;;;;;;12.20;9.45;;;24.30;75.90;;;;;;5053123;28;20021;-74
2022/08/17 05:46:22;;;;;;;12.90;10.70;;;24.40;75.40;;;;;;5053064;28;20037;-74
2022/08/17 05:48:51;;;;;;;15.55;12.40;;;24.60;75.10;;;;;;5053291;28;20036;-74
2022/08/17 05:51:26;;;;;;;13.05;11.75;;;24.50;75.10;;;;;;5052475;28;20044;-74
2022/08/17 05:54:06;;;;;;;14.43;13.02;;;24.30;76.10;;;;;;5053017;28;20035;-74
2022/08/17 05:57:13;;;;;;;12.73;9.98;;;24.20;76.00;;;;;;5052755;28;20033;-74
2022/08/17 05:59:53;;;;;;;14.20;11.60;;;24.10;76.30;;;;;;5052500;28;20048;-74
2022/08/17 06:02:40;;;;;;;12.50;8.80;;;24.10;76.30;;;;;;5052933;28;20096;-74
2022/08/17 06:05:27;;;;;;;13.57;9.93;;;24.20;76.20;;;;;;5052949;28;20024;-74
2022/08/17 06:08:26;;;;;;;14.82;12.48;;;24.30;75.80;;;;;;5052898;28;20119;-74
2022/08/17 06:11:19;;;;;;;15.25;11.50;;;24.40;76.00;;;;;;5053208;28;20375;-75
2022/08/17 06:14:15;;;;;;;12.07;8.63;;;24.20;76.50;;;;;;5053080;28;20094;-74
2022/08/17 06:16:46;;;;;;;11.20;8.77;;;24.20;76.70;;;;;;5052782;28;20033;-74
2022/08/17 06:19:15;;;;;;;12.85;10.93;;;24.30;76.30;;;;;;5052667;28;20021;-74
2022/08/17 06:21:45;;;;;;;13.48;10.25;;;24.40;76.40;;;;;;5052945;28;20075;-74
2022/08/17 06:24:37;;;;;;;17.75;12.43;;;24.30;76.70;;;;;;5052713;28;20049;-74
2022/08/17 06:27:06;;;;;;;;;;;24.30;77.20;;;;;;5053053;28;20034;-74
2022/08/17 06:30:01;;;;;;;12.30;11.10;;;24.20;77.30;;;;;;5052777;28;19905;-74
2022/08/17 06:32:28;;;;;;;15.75;14.02;;;24.10;77.80;;;;;;5048264;28;20025;-74
2022/08/17 06:34:54;;;;;;;17.40;14.60;;;24.10;78.10;;;;;;5052436;28;20087;-74
2022/08/17 06:38:03;;;;;;;16.58;14.77;;;24.00;78.90;;;;;;5052283;28;20037;-74
2022/08/17 06:40:38;;;;;;;15.40;12.10;;;23.90;79.80;;;;;;5044060;28;20037;-74
2022/08/17 06:43:31;;;;;;;15.00;13.48;;;23.90;80.10;;;;;;5052154;28;20033;-74
2022/08/17 06:46:32;;;;;;;16.30;14.13;;;24.00;80.10;;;;;;5052886;28;20429;-74
2022/08/17 06:49:16;;;;;;;14.73;12.27;;;24.10;79.80;;;;;;5049281;28;20481;-74
2022/08/17 06:52:05;;;;;;;19.92;16.80;;;24.10;79.80;;;;;;5052392;28;20109;-75
2022/08/17 06:54:49;;;;;;;19.85;16.48;;;24.10;79.80;;;;;;5052464;28;20473;-74
2022/08/17 06:57:24;;;;;;;15.68;14.07;;;24.00;80.20;;;;;;5052726;28;20029;-74
2022/08/17 06:59:57;;;;;;;19.83;16.00;;;24.00;80.50;;;;;;5052458;28;20032;-74
2022/08/17 07:02:44;;;;;;;20.60;18.40;;;24.00;80.70;;;;;;5052725;28;20063;-74
2022/08/17 07:05:14;;;;;;;18.60;14.90;;;24.00;81.80;;;;;;5055812;28;20033;-74
2022/08/17 07:08:03;;;;;;;19.42;17.35;;;24.00;82.20;;;;;;5056062;28;20025;-75
2022/08/17 07:10:43;;;;;;;20.77;18.58;;;24.10;82.90;;;;;;5055959;28;20044;-75
2022/08/17 07:13:20;;;;;;;18.50;16.33;;;23.90;83.40;;;;;;5055819;28;20116;-75
2022/08/17 07:15:48;;;;;;;20.40;17.98;;;23.90;83.60;;;;;;5055574;28;20032;-75
2022/08/17 07:18:14;;;;;;;19.95;17.38;;;23.90;83.90;;;;;;5055671;28;20464;-75
2022/08/17 07:20:44;;;;;;;19.80;17.20;;;23.90;84.10;;;;;;5055905;28;20082;-74
2022/08/17 07:23:37;;;;;;;23.67;21.27;;;23.90;83.70;;;;;;5055913;28;20503;-75
2022/08/17 07:26:07;;;;;;;24.67;20.52;;;24.00;84.10;;;;;;5055749;28;20044;-75
2022/08/17 07:28:34;;;;;;;22.50;19.20;;;24.00;84.40;;;;;;5055490;28;20033;-75
2022/08/17 07:31:00;;;;;;;18.33;15.68;;;23.90;84.90;;;;;;5055732;28;20111;-75
2022/08/17 07:33:28;;;;;;;31.02;22.60;;;24.00;84.80;;;;;;5055435;28;20032;-74
2022/08/17 07:35:56;;;;;;;22.38;20.02;;;24.00;86.30;;;;;;5055318;28;20064;-74
2022/08/17 07:38:24;;;;;;;24.38;21.83;;;23.90;86.30;;;;;;5055308;28;20392;-74
2022/08/17 07:41:01;;;;;;;23.55;19.92;;;23.90;86.60;;;;;;5055236;28;20079;-74
2022/08/17 07:43:28;;;;;;;26.88;22.27;;;24.00;87.10;;;;;;5054974;28;20040;-74
2022/08/17 07:48:43;;;;;;;20.27;18.17;;;24.00;87.90;;;;;;5055277;28;20055;-74
2022/08/17 07:51:19;;;;;;;28.38;23.70;;;24.10;87.60;;;;;;5055270;28;20032;-74
2022/08/17 07:53:45;;;;;;;26.27;23.48;;;24.10;88.00;;;;;;5055214;28;20036;-75
2022/08/17 07:56:29;;;;;;;25.25;22.50;;;24.10;88.70;;;;;;5054671;28;20033;-74
2022/08/17 07:59:29;;;;;;;21.27;18.98;;;24.00;88.40;;;;;;5055016;28;20056;-74
2022/08/17 08:01:55;;;;;;;26.30;21.50;;;24.00;88.50;;;;;;5055261;28;20029;-74
2022/08/17 08:04:52;;;;;;;26.45;22.17;;;24.00;88.60;;;;;;5055035;28;20380;-74
2022/08/17 08:07:19;;;;;;;25.27;20.98;;;24.00;89.00;;;;;;5053366;28;20032;-74
2022/08/17 08:10:03;;;;;;;27.58;22.60;;;24.00;89.20;;;;;;5054674;28;20384;-75
2022/08/17 08:13:03;;;;;;;24.45;20.10;;;24.00;89.20;;;;;;5054609;28;20036;-75
2022/08/17 08:15:42;;;;;;;21.90;19.55;;;24.10;89.20;;;;;;5049470;28;20044;-75
2022/08/17 08:18:39;;;;;;;24.50;19.95;;;24.10;88.90;;;;;;5054404;28;20021;-75
2022/08/17 08:21:14;;;;;;;24.52;22.13;;;24.20;89.00;;;;;;5054749;28;20021;-74
2022/08/17 08:24:16;;;;;;;28.05;23.88;;;24.20;89.00;;;;;;5054107;28;20068;-74
2022/08/17 08:27:06;;;;;;;70.68;26.27;;;24.20;89.20;;;;;;5054685;28;20120;-74
2022/08/17 08:29:38;;;;;;;22.63;14.75;;;24.20;89.60;;;;;;5054459;28;20116;-74
2022/08/17 08:32:13;;;;;;;;;;;24.30;89.20;;;;;;5054578;28;20025;-74
2022/08/17 08:34:56;;;;;;;31.30;20.85;;;24.40;89.40;;;;;;5054815;28;19905;-74
2022/08/17 08:37:41;;;;;;;33.47;24.95;;;24.40;89.50;;;;;;5054462;28;20040;-74
2022/08/17 08:40:41;;;;;;;27.85;21.02;;;24.50;89.50;;;;;;5054092;28;20017;-74
2022/08/17 08:43:25;;;;;;;28.65;21.27;;;24.50;89.10;;;;;;5054154;28;20032;-74
2022/08/17 08:46:22;;;;;;;25.95;22.00;;;24.60;88.80;;;;;;5054216;28;20020;-76
2022/08/17 08:49:18;;;;;;;30.27;20.77;;;24.60;88.90;;;;;;5054032;28;20032;-75
2022/08/17 08:51:59;;;;;;;20.13;14.35;;;24.60;88.80;;;;;;5053981;28;20021;-75
2022/08/17 08:54:53;;;;;;;29.33;19.30;;;24.70;88.20;;;;;;5053916;28;20021;-75
2022/08/17 08:57:32;;;;;;;25.05;18.90;;;24.80;87.30;;;;;;5053571;28;20445;-75
2022/08/17 09:00:22;;;;;;;18.23;16.33;;;24.80;86.90;;;;;;5053747;28;20021;-75
2022/08/17 09:03:07;;;;;;;17.75;15.95;;;24.90;86.30;;;;;;5053512;28;20568;-75
2022/08/17 09:06:03;;;;;;;18.10;15.77;;;25.00;85.80;;;;;;5053604;28;20063;-75
2022/08/17 09:08:55;;;;;;;20.15;16.58;;;25.00;85.30;;;;;;5053594;28;20048;-75
2022/08/17 09:11:53;;;;;;;19.48;17.35;;;24.90;84.90;;;;;;5053958;28;20059;-75
2022/08/17 09:14:31;;;;;;;18.90;13.82;;;24.90;85.00;;;;;;5053644;28;20052;-75
2022/08/17 09:17:15;;;;;;;19.55;17.52;;;25.00;85.10;;;;;;5053633;28;20045;-75
2022/08/17 09:19:54;;;;;;;20.48;18.35;;;25.00;85.60;;;;;;5053701;28;20024;-75
2022/08/17 09:22:41;;;;;;;21.00;15.50;;;24.90;85.70;;;;;;5053185;28;20107;-75
2022/08/17 09:25:19;;;;;;;19.10;15.45;;;24.80;86.00;;;;;;5052869;28;20136;-75
2022/08/17 09:27:57;;;;;;;30.67;12.63;;;24.80;86.40;;;;;;5053363;28;20052;-75
2022/08/17 09:30:23;;;;;;;37.20;19.63;;;24.90;86.60;;;;;;5053576;28;20396;-75
2022/08/17 09:32:55;;;;;;;25.42;19.25;;;24.90;87.30;;;;;;5053075;28;20048;-75
2022/08/17 09:35:36;;;;;;;56.10;20.92;;;24.90;88.10;;;;;;5052912;28;20029;-75
2022/08/17 09:38:28;;;;;;;123.32;23.80;;;24.90;88.80;;;;;;5053348;28;20075;-75
2022/08/17 09:41:00;;;;;;;22.52;20.23;;;24.90;88.70;;;;;;5052993;28;20029;-75
2022/08/17 09:43:26;;;;;;;21.33;18.80;;;24.80;88.60;;;;;;5053418;28;20021;-75
2022/08/17 09:45:56;;;;;;;19.05;15.18;;;24.90;88.30;;;;;;5053247;28;20075;-75
2022/08/17 09:48:36;;;;;;;17.13;15.40;;;24.90;88.20;;;;;;5052646;28;20025;-75
2022/08/17 09:51:20;;;;;;;19.33;14.73;;;25.00;87.90;;;;;;5052917;28;20472;-75
2022/08/17 09:53:46;;;;;;;16.25;14.45;;;25.00;87.40;;;;;;5053118;28;20048;-75
2022/08/17 09:56:36;;;;;;;15.18;13.68;;;25.20;87.40;;;;;;5052648;28;20037;-75
2022/08/17 09:59:26;;;;;;;14.48;12.98;;;25.30;86.80;;;;;;5052903;28;20048;-75
2022/08/17 10:02:03;;;;;;;16.25;14.55;;;25.40;86.80;;;;;;5053170;28;20099;-75
2022/08/17 10:04:58;;;;;;;19.92;14.20;;;25.40;86.50;;;;;;5053147;28;20021;-75
2022/08/17 10:07:26;;;;;;;16.83;13.70;;;25.50;86.70;;;;;;5033456;28;20025;-75
2022/08/17 10:10:14;;;;;;;18.05;15.38;;;25.60;86.40;;;;;;5052634;28;20041;-75
2022/08/17 10:13:25;;;;;;;15.43;13.90;;;25.60;85.40;;;;;;5052976;28;20032;-75
2022/08/17 10:16:10;;;;;;;16.88;14.25;;;25.60;84.80;;;;;;5030764;28;20075;-75
2022/08/17 10:18:45;;;;;;;16.73;14.57;;;25.50;84.50;;;;;;5030758;28;20068;-75
2022/08/17 10:26:56;;;;;;;18.58;16.65;;;25.40;84.10;;;;;;5052732;28;20407;-75
2022/08/17 10:29:32;;;;;;;15.45;13.95;;;25.40;83.90;;;;;;5053073;28;20040;-75
2022/08/17 10:32:04;;;;;;;20.33;13.20;;;25.40;83.60;;;;;;5052437;28;20021;-76
2022/08/17 10:34:45;;;;;;;17.30;13.95;;;25.50;83.30;;;;;;5052691;28;20104;-75
2022/08/17 10:37:10;;;;;;;17.65;15.88;;;25.60;82.90;;;;;;5053562;28;20404;-75
2022/08/17 10:39:56;;;;;;;18.23;15.25;;;25.70;82.70;;;;;;5056426;28;20021;-75
2022/08/17 10:42:41;;;;;;;16.58;14.77;;;25.70;82.50;;;;;;5056510;28;20036;-75
2022/08/17 10:45:30;;;;;;;17.27;14.13;;;25.70;82.90;;;;;;5056660;28;20036;-75
2022/08/17 10:48:05;;;;;;;14.00;12.45;;;25.70;82.50;;;;;;5056004;28;20021;-75
2022/08/17 10:50:52;;;;;;;15.73;14.23;;;25.70;82.10;;;;;;5055982;28;20178;-75
2022/08/17 10:53:30;;;;;;;19.05;17.05;;;25.80;81.90;;;;;;5056060;28;20534;-76
2022/08/17 10:56:15;;;;;;;16.77;15.05;;;25.70;81.50;;;;;;5056199;28;20029;-75
2022/08/17 10:58:53;;;;;;;19.42;15.73;;;25.70;81.60;;;;;;5055905;28;20032;-75
2022/08/17 11:01:32;;;;;;;16.08;13.65;;;25.70;82.20;;;;;;5056039;28;20465;-75
2022/08/17 11:04:21;;;;;;;15.95;13.77;;;25.70;81.60;;;;;;5056063;28;20035;-75
2022/08/17 11:07:19;;;;;;;17.67;14.30;;;25.70;81.90;;;;;;5055959;28;20468;-75
2022/08/17 11:10:04;;;;;;;17.60;15.77;;;25.70;83.50;;;;;;5055996;28;20044;-75
2022/08/17 11:12:53;;;;;;;15.13;13.45;;;25.70;84.50;;;;;;5055765;28;20464;-74
2022/08/17 11:15:33;;;;;;;15.10;13.60;;;25.60;84.80;;;;;;5055562;28;20041;-75
2022/08/17 11:18:13;;;;;;;18.17;15.02;;;25.60;85.10;;;;;;5055511;28;20469;-76
2022/08/17 11:21:16;;;;;;;16.38;14.77;;;25.50;84.90;;;;;;5055400;28;20389;-77
2022/08/17 11:23:44;;;;;;;;;;;25.50;84.80;;;;;;5055995;28;20142;-83
2022/08/17 11:26:25;;;;;;;12.60;11.02;;;25.50;84.50;;;;;;5055855;28;20003;-79
2022/08/17 11:29:03;;;;;;;17.38;15.57;;;25.50;84.80;;;;;;5054721;28;20036;-85
2022/08/17 11:31:40;;;;;;;13.43;12.05;;;25.40;86.10;;;;;;5055076;28;20025;-84
2022/08/17 11:34:08;;;;;;;12.18;10.90;;;25.40;86.20;;;;;;5053063;28;20567;-85
2022/08/17 11:36:51;;;;;;;19.35;14.10;;;25.40;86.20;;;;;;5050788;28;20477;-84
2022/08/17 11:39:51;;;;;;;17.30;15.38;;;25.60;85.90;;;;;;5051619;28;20418;-83
2022/08/17 11:42:26;;;;;;;17.85;16.08;;;25.50;86.80;;;;;;5051771;28;20021;-83
2022/08/17 11:44:54;;;;;;;12.57;11.30;;;25.40;87.40;;;;;;5054301;28;20036;-83
2022/08/17 11:53:36;;;;;;;18.95;16.35;;;25.50;88.10;;;;;;5054863;28;20036;-83
2022/08/17 11:56:03;;;;;;;19.70;17.23;;;25.40;89.10;;;;;;5055051;28;20087;-83
2022/08/17 11:58:29;;;;;;;19.77;17.88;;;25.20;89.80;;;;;;5054959;28;20044;-81
2022/08/17 12:00:57;;;;;;;13.68;12.38;;;25.00;89.60;;;;;;5054869;28;20063;-81
2022/08/17 12:03:36;;;;;;;13.52;11.65;;;24.90;90.00;;;;;;5054672;28;20028;-80
2022/08/17 12:06:18;;;;;;;12.75;11.55;;;24.90;90.20;;;;;;5054462;28;20113;-82
2022/08/17 12:08:53;;;;;;;12.77;11.52;;;24.90;90.30;;;;;;5054827;28;20031;-81
2022/08/17 12:11:29;;;;;;;19.45;16.52;;;24.90;90.40;;;;;;5054803;28;20060;-82
2022/08/17 12:13:57;;;;;;;12.68;11.43;;;24.90;90.50;;;;;;5054569;28;20040;-82
2022/08/17 12:16:23;;;;;;;9.55;8.57;;;24.80;90.60;;;;;;5054513;28;20163;-82
2022/08/17 12:18:58;;;;;;;7.38;6.68;;;24.80;90.50;;;;;;5054438;28;20437;-82
2022/08/17 12:21:35;;;;;;;12.70;8.93;;;24.90;90.30;;;;;;5054208;28;20036;-82
2022/08/17 12:24:34;;;;;;;15.38;13.77;;;25.00;90.40;;;;;;5054262;28;20035;-83
2022/08/17 12:27:03;;;;;;;13.77;11.57;;;25.00;90.40;;;;;;5045552;28;20110;-82
2022/08/17 12:29:30;;;;;;;15.65;14.10;;;25.00;90.50;;;;;;5054346;28;20025;-80
2022/08/17 12:31:57;;;;;;;19.38;17.52;;;25.00;90.60;;;;;;5054581;28;20052;-84
2022/08/17 12:34:26;;;;;;;10.52;9.10;;;24.90;90.70;;;;;;5054223;28;20040;-78
2022/08/17 12:36:58;;;;;;;19.92;17.90;;;24.70;90.80;;;;;;5054186;28;20563;-81
2022/08/17 12:39:25;;;;;;;12.07;10.88;;;24.60;91.10;;;;;;5054348;28;20372;-79
2022/08/17 12:41:55;;;;;;;9.02;7.95;;;24.60;91.10;;;;;;5053873;28;20037;-81
2022/08/17 12:44:22;;;;;;;10.43;8.13;;;24.60;91.10;;;;;;5054052;28;20056;-81
2022/08/17 12:46:52;;;;;;;14.00;10.70;;;24.70;90.90;;;;;;5053672;28;20075;-82
2022/08/17 12:49:26;;;;;;;10.85;9.75;;;24.80;90.60;;;;;;5053901;28;20430;-80
2022/08/17 12:52:00;;;;;;;12.95;10.73;;;25.00;90.50;;;;;;5054139;28;20021;-82
2022/08/17 12:54:43;;;;;;;12.65;10.32;;;25.00;90.30;;;;;;5053803;28;20487;-82
2022/08/17 12:57:19;;;;;;;79.57;25.50;;;25.10;90.10;;;;;;5054029;28;20116;-81
2022/08/17 12:59:50;;;;;;;88.53;31.05;;;25.20;90.00;;;;;;5053849;28;20029;-82
2022/08/17 13:02:41;;;;;;;50.78;21.50;;;25.20;89.90;;;;;;5053963;28;20033;-77
2022/08/17 13:05:16;;;;;;;40.58;19.13;;;25.30;89.90;;;;;;5053499;28;20051;-82
2022/08/17 13:07:43;;;;;;;27.70;14.63;;;25.40;89.60;;;;;;5053679;28;20079;-82
2022/08/17 13:10:28;;;;;;;32.22;16.58;;;25.40;89.60;;;;;;5053632;28;20052;-78
2022/08/17 13:12:54;;;;;;;16.65;12.05;;;25.40;89.90;;;;;;5053825;28;20082;-80
2022/08/17 13:15:31;;;;;;;17.63;10.48;;;25.30;89.70;;;;;;5053532;28;20096;-82
2022/08/17 13:18:29;;;;;;;14.05;9.65;;;25.30;89.50;;;;;;5053685;28;20413;-83
2022/08/17 13:20:57;;;;;;;14.30;9.88;;;25.40;89.40;;;;;;5044544;28;20028;-83
2022/08/17 13:23:25;;;;;;;14.85;9.05;;;25.40;89.50;;;;;;5053273;28;20029;-83
2022/08/17 13:26:06;;;;;;;13.25;8.48;;;25.50;89.40;;;;;;5053395;28;20033;-82
2022/08/17 13:28:34;;;;;;;15.60;14.00;;;25.50;89.90;;;;;;5053450;28;20021;-82
2022/08/17 13:31:32;;;;;;;17.67;15.88;;;25.50;89.60;;;;;;5053644;28;20029;-82
2022/08/17 13:34:30;;;;;;;24.13;21.52;;;25.40;90.20;;;;;;5053287;28;20023;-83
2022/08/17 13:37:17;;;;;;;12.50;9.85;;;25.20;90.50;;;;;;5053426;28;20041;-83